sensor_id;sensor_type;location;lat;lon;timestamp;P1;durP1;ratioP1;P2;durP2;ratioP2
11100;SDS011;5604;50.722;7.078;2023-07-16T00:00:49;1.67;;;1.50;;
11100;SDS011;5604;50.722;7.078;2023-07-16T00:03:18;2.07;;;1.80;;
11100;SDS011;5604;50.722;7.078;2023-07-16T00:05:50;3.87;;;1.60;;
11100;SDS011;5604;50.722;7.078;2023-07-16T00:08:18;3.03;;;1.60;;
11100;SDS011;5604;50.722;7.078;2023-07-16T00:10:46;5.00;;;1.97;;
11100;SDS011;5604;50.722;7.078;2023-07-16T00:13:14;4.13;;;1.60;;
11100;SDS011;5604;50.722;7.078;2023-07-16T00:15:43;3.07;;;1.80;;
11100;SDS011;5604;50.722;7.078;2023-07-16T00:18:11;1.93;;;1.60;;
11100;SDS011;5604;50.722;7.078;2023-07-16T00:20:39;2.17;;;1.80;;
11100;SDS011;5604;50.722;7.078;2023-07-16T00:23:09;2.70;;;2.00;;
11100;SDS011;5604;50.722;7.078;2023-07-16T00:25:37;2.77;;;1.97;;
11100;SDS011;5604;50.722;7.078;2023-07-16T00:28:05;2.80;;;1.70;;
11100;SDS011;5604;50.722;7.078;2023-07-16T00:30:33;1.90;;;1.70;;
11100;SDS011;5604;50.722;7.078;2023-07-16T00:33:02;2.97;;;1.53;;
11100;SDS011;5604;50.722;7.078;2023-07-16T00:35:30;3.93;;;1.97;;
11100;SDS011;5604;50.722;7.078;2023-07-16T00:37:58;1.90;;;1.40;;
11100;SDS011;5604;50.722;7.078;2023-07-16T00:40:28;2.10;;;1.70;;
11100;SDS011;5604;50.722;7.078;2023-07-16T00:42:56;2.67;;;1.73;;
11100;SDS011;5604;50.722;7.078;2023-07-16T00:45:24;4.77;;;1.60;;
11100;SDS011;5604;50.722;7.078;2023-07-16T00:47:52;4.47;;;1.67;;
11100;SDS011;5604;50.722;7.078;2023-07-16T00:50:20;3.10;;;1.57;;
11100;SDS011;5604;50.722;7.078;2023-07-16T00:52:48;2.43;;;1.50;;
11100;SDS011;5604;50.722;7.078;2023-07-16T00:55:16;4.30;;;1.70;;
11100;SDS011;5604;50.722;7.078;2023-07-16T00:57:46;5.47;;;2.37;;
11100;SDS011;5604;50.722;7.078;2023-07-16T01:00:14;6.10;;;1.53;;
11100;SDS011;5604;50.722;7.078;2023-07-16T01:02:43;2.57;;;2.10;;
11100;SDS011;5604;50.722;7.078;2023-07-16T01:05:11;2.07;;;1.40;;
11100;SDS011;5604;50.722;7.078;2023-07-16T01:07:39;3.10;;;1.83;;
11100;SDS011;5604;50.722;7.078;2023-07-16T01:10:12;4.03;;;1.60;;
11100;SDS011;5604;50.722;7.078;2023-07-16T01:12:40;3.43;;;1.60;;
11100;SDS011;5604;50.722;7.078;2023-07-16T01:15:10;3.00;;;1.60;;
11100;SDS011;5604;50.722;7.078;2023-07-16T01:17:38;3.70;;;1.60;;
11100;SDS011;5604;50.722;7.078;2023-07-16T01:20:07;4.77;;;2.20;;
11100;SDS011;5604;50.722;7.078;2023-07-16T01:22:38;3.30;;;1.70;;
11100;SDS011;5604;50.722;7.078;2023-07-16T01:25:35;1.77;;;1.53;;
11100;SDS011;5604;50.722;7.078;2023-07-16T01:28:13;2.40;;;1.70;;
11100;SDS011;5604;50.722;7.078;2023-07-16T01:30:51;5.13;;;1.97;;
11100;SDS011;5604;50.722;7.078;2023-07-16T01:33:19;5.43;;;1.87;;
11100;SDS011;5604;50.722;7.078;2023-07-16T01:35:48;2.77;;;1.67;;
11100;SDS011;5604;50.722;7.078;2023-07-16T01:38:18;3.50;;;1.80;;
11100;SDS011;5604;50.722;7.078;2023-07-16T01:40:47;4.07;;;1.57;;
11100;SDS011;5604;50.722;7.078;2023-07-16T01:43:16;2.73;;;1.77;;
11100;SDS011;5604;50.722;7.078;2023-07-16T01:45:45;3.93;;;1.90;;
11100;SDS011;5604;50.722;7.078;2023-07-16T01:48:16;2.00;;;1.57;;
11100;SDS011;5604;50.722;7.078;2023-07-16T01:50:52;2.53;;;1.50;;
11100;SDS011;5604;50.722;7.078;2023-07-16T01:53:20;4.07;;;1.83;;
11100;SDS011;5604;50.722;7.078;2023-07-16T01:55:48;4.40;;;1.90;;
11100;SDS011;5604;50.722;7.078;2023-07-16T01:58:16;3.33;;;1.73;;
11100;SDS011;5604;50.722;7.078;2023-07-16T02:00:44;2.57;;;1.73;;
11100;SDS011;5604;50.722;7.078;2023-07-16T02:03:16;6.77;;;2.00;;
11100;SDS011;5604;50.722;7.078;2023-07-16T02:05:44;3.90;;;1.70;;
11100;SDS011;5604;50.722;7.078;2023-07-16T02:08:12;4.70;;;1.83;;
11100;SDS011;5604;50.722;7.078;2023-07-16T02:10:40;3.67;;;1.80;;
11100;SDS011;5604;50.722;7.078;2023-07-16T02:13:10;2.70;;;1.50;;
11100;SDS011;5604;50.722;7.078;2023-07-16T02:15:38;3.63;;;1.77;;
11100;SDS011;5604;50.722;7.078;2023-07-16T02:18:06;2.87;;;1.50;;
11100;SDS011;5604;50.722;7.078;2023-07-16T02:20:36;6.17;;;2.13;;
11100;SDS011;5604;50.722;7.078;2023-07-16T02:23:04;3.90;;;2.10;;
11100;SDS011;5604;50.722;7.078;2023-07-16T02:25:32;3.13;;;1.63;;
11100;SDS011;5604;50.722;7.078;2023-07-16T02:28:00;3.97;;;1.73;;
11100;SDS011;5604;50.722;7.078;2023-07-16T02:30:29;2.43;;;1.50;;
11100;SDS011;5604;50.722;7.078;2023-07-16T02:32:57;2.20;;;1.50;;
11100;SDS011;5604;50.722;7.078;2023-07-16T02:35:27;7.43;;;2.33;;
11100;SDS011;5604;50.722;7.078;2023-07-16T02:37:56;2.20;;;1.50;;
11100;SDS011;5604;50.722;7.078;2023-07-16T02:40:25;2.27;;;1.80;;
11100;SDS011;5604;50.722;7.078;2023-07-16T02:42:53;3.20;;;1.67;;
11100;SDS011;5604;50.722;7.078;2023-07-16T02:45:21;7.87;;;1.80;;
11100;SDS011;5604;50.722;7.078;2023-07-16T02:47:49;2.07;;;1.60;;
11100;SDS011;5604;50.722;7.078;2023-07-16T02:50:17;5.60;;;2.13;;
11100;SDS011;5604;50.722;7.078;2023-07-16T02:52:45;3.57;;;1.77;;
11100;SDS011;5604;50.722;7.078;2023-07-16T02:55:15;3.17;;;2.03;;
11100;SDS011;5604;50.722;7.078;2023-07-16T02:57:43;4.67;;;1.83;;
11100;SDS011;5604;50.722;7.078;2023-07-16T03:00:11;2.80;;;1.73;;
11100;SDS011;5604;50.722;7.078;2023-07-16T03:02:40;5.37;;;1.40;;
11100;SDS011;5604;50.722;7.078;2023-07-16T03:05:08;5.87;;;2.20;;
11100;SDS011;5604;50.722;7.078;2023-07-16T03:07:36;3.73;;;2.50;;
11100;SDS011;5604;50.722;7.078;2023-07-16T03:10:04;2.83;;;1.70;;
11100;SDS011;5604;50.722;7.078;2023-07-16T03:12:34;5.33;;;1.93;;
11100;SDS011;5604;50.722;7.078;2023-07-16T03:15:03;3.80;;;1.97;;
11100;SDS011;5604;50.722;7.078;2023-07-16T03:17:32;3.77;;;1.90;;
11100;SDS011;5604;50.722;7.078;2023-07-16T03:20:00;4.87;;;1.53;;
11100;SDS011;5604;50.722;7.078;2023-07-16T03:22:29;6.07;;;2.17;;
11100;SDS011;5604;50.722;7.078;2023-07-16T03:24:58;4.60;;;2.03;;
11100;SDS011;5604;50.722;7.078;2023-07-16T03:27:26;3.47;;;1.70;;
11100;SDS011;5604;50.722;7.078;2023-07-16T03:29:59;4.60;;;1.97;;
11100;SDS011;5604;50.722;7.078;2023-07-16T03:32:29;5.67;;;1.80;;
11100;SDS011;5604;50.722;7.078;2023-07-16T03:35:17;4.10;;;2.00;;
11100;SDS011;5604;50.722;7.078;2023-07-16T03:37:45;3.20;;;2.07;;
11100;SDS011;5604;50.722;7.078;2023-07-16T03:40:13;4.17;;;2.03;;
11100;SDS011;5604;50.722;7.078;2023-07-16T03:42:44;5.10;;;1.63;;
11100;SDS011;5604;50.722;7.078;2023-07-16T03:45:13;4.53;;;2.20;;
11100;SDS011;5604;50.722;7.078;2023-07-16T03:47:41;4.00;;;1.80;;
11100;SDS011;5604;50.722;7.078;2023-07-16T03:50:11;5.23;;;2.10;;
11100;SDS011;5604;50.722;7.078;2023-07-16T03:52:39;5.73;;;2.10;;
11100;SDS011;5604;50.722;7.078;2023-07-16T03:55:07;3.53;;;1.90;;
11100;SDS011;5604;50.722;7.078;2023-07-16T03:57:36;2.63;;;1.50;;
11100;SDS011;5604;50.722;7.078;2023-07-16T04:00:07;4.93;;;1.70;;
11100;SDS011;5604;50.722;7.078;2023-07-16T04:02:49;7.30;;;2.00;;
11100;SDS011;5604;50.722;7.078;2023-07-16T04:05:17;3.50;;;1.97;;
11100;SDS011;5604;50.722;7.078;2023-07-16T04:07:50;5.00;;;2.03;;
11100;SDS011;5604;50.722;7.078;2023-07-16T04:10:18;3.37;;;2.20;;
11100;SDS011;5604;50.722;7.078;2023-07-16T04:12:46;5.87;;;2.67;;
11100;SDS011;5604;50.722;7.078;2023-07-16T04:15:14;3.70;;;1.90;;
11100;SDS011;5604;50.722;7.078;2023-07-16T04:17:42;3.63;;;1.90;;
11100;SDS011;5604;50.722;7.078;2023-07-16T04:20:12;2.20;;;2.00;;
11100;SDS011;5604;50.722;7.078;2023-07-16T04:22:40;4.33;;;2.20;;
11100;SDS011;5604;50.722;7.078;2023-07-16T04:25:09;3.90;;;1.83;;
11100;SDS011;5604;50.722;7.078;2023-07-16T04:27:37;6.60;;;2.50;;
11100;SDS011;5604;50.722;7.078;2023-07-16T04:30:09;4.67;;;2.10;;
11100;SDS011;5604;50.722;7.078;2023-07-16T04:32:38;5.07;;;2.20;;
11100;SDS011;5604;50.722;7.078;2023-07-16T04:35:06;3.97;;;2.33;;
11100;SDS011;5604;50.722;7.078;2023-07-16T04:37:36;5.17;;;2.37;;
11100;SDS011;5604;50.722;7.078;2023-07-16T04:40:05;6.63;;;2.30;;
11100;SDS011;5604;50.722;7.078;2023-07-16T04:42:34;8.10;;;2.30;;
11100;SDS011;5604;50.722;7.078;2023-07-16T04:45:02;5.97;;;2.20;;
11100;SDS011;5604;50.722;7.078;2023-07-16T04:47:31;2.67;;;1.90;;
11100;SDS011;5604;50.722;7.078;2023-07-16T04:50:00;4.77;;;2.33;;
11100;SDS011;5604;50.722;7.078;2023-07-16T04:52:28;4.10;;;2.20;;
11100;SDS011;5604;50.722;7.078;2023-07-16T04:54:58;5.57;;;2.00;;
11100;SDS011;5604;50.722;7.078;2023-07-16T04:57:26;3.03;;;2.00;;
11100;SDS011;5604;50.722;7.078;2023-07-16T04:59:54;5.90;;;2.30;;
11100;SDS011;5604;50.722;7.078;2023-07-16T05:02:22;7.50;;;2.17;;
11100;SDS011;5604;50.722;7.078;2023-07-16T05:04:50;3.27;;;1.90;;
11100;SDS011;5604;50.722;7.078;2023-07-16T05:07:18;5.00;;;2.40;;
11100;SDS011;5604;50.722;7.078;2023-07-16T05:09:46;5.67;;;2.33;;
11100;SDS011;5604;50.722;7.078;2023-07-16T05:12:15;6.47;;;2.13;;
11100;SDS011;5604;50.722;7.078;2023-07-16T05:14:44;5.30;;;2.27;;
11100;SDS011;5604;50.722;7.078;2023-07-16T05:17:13;5.93;;;2.40;;
11100;SDS011;5604;50.722;7.078;2023-07-16T05:19:42;4.43;;;2.50;;
11100;SDS011;5604;50.722;7.078;2023-07-16T05:22:10;4.67;;;2.23;;
11100;SDS011;5604;50.722;7.078;2023-07-16T05:24:38;3.63;;;2.40;;
11100;SDS011;5604;50.722;7.078;2023-07-16T05:27:07;4.53;;;2.27;;
11100;SDS011;5604;50.722;7.078;2023-07-16T05:29:36;4.33;;;2.57;;
11100;SDS011;5604;50.722;7.078;2023-07-16T05:32:04;5.00;;;2.43;;
11100;SDS011;5604;50.722;7.078;2023-07-16T05:34:33;6.40;;;2.80;;
11100;SDS011;5604;50.722;7.078;2023-07-16T05:37:01;7.80;;;2.50;;
11100;SDS011;5604;50.722;7.078;2023-07-16T05:39:29;4.53;;;2.37;;
11100;SDS011;5604;50.722;7.078;2023-07-16T05:41:57;7.13;;;2.80;;
11100;SDS011;5604;50.722;7.078;2023-07-16T05:44:25;5.63;;;3.23;;
11100;SDS011;5604;50.722;7.078;2023-07-16T05:46:54;7.07;;;3.13;;
11100;SDS011;5604;50.722;7.078;2023-07-16T05:49:23;6.77;;;3.10;;
11100;SDS011;5604;50.722;7.078;2023-07-16T05:51:52;5.80;;;2.93;;
11100;SDS011;5604;50.722;7.078;2023-07-16T05:54:20;8.43;;;2.93;;
11100;SDS011;5604;50.722;7.078;2023-07-16T05:56:49;4.23;;;3.00;;
11100;SDS011;5604;50.722;7.078;2023-07-16T05:59:17;3.67;;;2.80;;
11100;SDS011;5604;50.722;7.078;2023-07-16T06:01:45;7.47;;;3.20;;
11100;SDS011;5604;50.722;7.078;2023-07-16T06:04:14;7.23;;;3.33;;
11100;SDS011;5604;50.722;7.078;2023-07-16T06:06:43;5.93;;;3.30;;
11100;SDS011;5604;50.722;7.078;2023-07-16T06:09:11;8.27;;;3.50;;
11100;SDS011;5604;50.722;7.078;2023-07-16T06:11:39;6.57;;;3.47;;
11100;SDS011;5604;50.722;7.078;2023-07-16T06:14:07;5.47;;;3.33;;
11100;SDS011;5604;50.722;7.078;2023-07-16T06:16:35;6.90;;;3.10;;
11100;SDS011;5604;50.722;7.078;2023-07-16T06:19:03;6.17;;;2.93;;
11100;SDS011;5604;50.722;7.078;2023-07-16T06:21:33;6.57;;;2.53;;
11100;SDS011;5604;50.722;7.078;2023-07-16T06:24:01;8.97;;;3.50;;
11100;SDS011;5604;50.722;7.078;2023-07-16T06:26:29;7.90;;;3.10;;
11100;SDS011;5604;50.722;7.078;2023-07-16T06:28:57;4.40;;;3.40;;
11100;SDS011;5604;50.722;7.078;2023-07-16T06:31:25;7.57;;;3.37;;
11100;SDS011;5604;50.722;7.078;2023-07-16T06:33:53;5.87;;;3.47;;
11100;SDS011;5604;50.722;7.078;2023-07-16T06:36:21;5.50;;;3.67;;
11100;SDS011;5604;50.722;7.078;2023-07-16T06:38:50;7.50;;;3.87;;
11100;SDS011;5604;50.722;7.078;2023-07-16T06:41:19;4.87;;;3.30;;
11100;SDS011;5604;50.722;7.078;2023-07-16T06:43:47;6.87;;;4.13;;
11100;SDS011;5604;50.722;7.078;2023-07-16T06:46:15;7.83;;;4.43;;
11100;SDS011;5604;50.722;7.078;2023-07-16T06:48:43;6.43;;;4.03;;
11100;SDS011;5604;50.722;7.078;2023-07-16T06:51:11;7.23;;;4.47;;
11100;SDS011;5604;50.722;7.078;2023-07-16T06:53:39;7.07;;;3.80;;
11100;SDS011;5604;50.722;7.078;2023-07-16T06:56:09;6.97;;;3.83;;
11100;SDS011;5604;50.722;7.078;2023-07-16T06:58:37;7.17;;;4.60;;
11100;SDS011;5604;50.722;7.078;2023-07-16T07:01:05;7.40;;;4.20;;
11100;SDS011;5604;50.722;7.078;2023-07-16T07:03:33;8.40;;;3.93;;
11100;SDS011;5604;50.722;7.078;2023-07-16T07:06:02;7.87;;;4.30;;
11100;SDS011;5604;50.722;7.078;2023-07-16T07:08:30;7.90;;;4.00;;
11100;SDS011;5604;50.722;7.078;2023-07-16T07:10:58;7.30;;;4.13;;
11100;SDS011;5604;50.722;7.078;2023-07-16T07:13:28;5.97;;;4.10;;
11100;SDS011;5604;50.722;7.078;2023-07-16T07:15:56;6.93;;;3.87;;
11100;SDS011;5604;50.722;7.078;2023-07-16T07:18:24;6.73;;;4.20;;
11100;SDS011;5604;50.722;7.078;2023-07-16T07:20:52;5.30;;;4.37;;
11100;SDS011;5604;50.722;7.078;2023-07-16T07:23:20;8.70;;;4.77;;
11100;SDS011;5604;50.722;7.078;2023-07-16T07:25:49;8.03;;;4.33;;
11100;SDS011;5604;50.722;7.078;2023-07-16T07:28:18;5.43;;;3.97;;
11100;SDS011;5604;50.722;7.078;2023-07-16T07:30:48;5.30;;;4.10;;
11100;SDS011;5604;50.722;7.078;2023-07-16T07:33:17;5.70;;;4.27;;
11100;SDS011;5604;50.722;7.078;2023-07-16T07:35:45;5.33;;;4.10;;
11100;SDS011;5604;50.722;7.078;2023-07-16T07:38:13;8.00;;;4.40;;
11100;SDS011;5604;50.722;7.078;2023-07-16T07:40:42;7.47;;;4.23;;
11100;SDS011;5604;50.722;7.078;2023-07-16T07:43:10;5.77;;;4.10;;
11100;SDS011;5604;50.722;7.078;2023-07-16T07:45:38;7.43;;;4.10;;
11100;SDS011;5604;50.722;7.078;2023-07-16T07:48:08;5.90;;;3.80;;
11100;SDS011;5604;50.722;7.078;2023-07-16T07:50:36;8.70;;;3.80;;
11100;SDS011;5604;50.722;7.078;2023-07-16T07:53:04;5.80;;;4.17;;
11100;SDS011;5604;50.722;7.078;2023-07-16T07:55:33;6.73;;;4.10;;
11100;SDS011;5604;50.722;7.078;2023-07-16T07:58:01;6.17;;;4.23;;
11100;SDS011;5604;50.722;7.078;2023-07-16T08:00:29;6.87;;;4.50;;
11100;SDS011;5604;50.722;7.078;2023-07-16T08:02:58;5.50;;;4.00;;
11100;SDS011;5604;50.722;7.078;2023-07-16T08:05:27;5.37;;;4.13;;
11100;SDS011;5604;50.722;7.078;2023-07-16T08:07:55;6.20;;;3.70;;
11100;SDS011;5604;50.722;7.078;2023-07-16T08:10:23;6.73;;;4.27;;
11100;SDS011;5604;50.722;7.078;2023-07-16T08:12:51;6.30;;;4.10;;
11100;SDS011;5604;50.722;7.078;2023-07-16T08:15:20;5.07;;;4.20;;
11100;SDS011;5604;50.722;7.078;2023-07-16T08:17:48;6.27;;;3.97;;
11100;SDS011;5604;50.722;7.078;2023-07-16T08:20:16;5.57;;;3.80;;
11100;SDS011;5604;50.722;7.078;2023-07-16T08:22:46;6.53;;;4.10;;
11100;SDS011;5604;50.722;7.078;2023-07-16T08:25:14;6.93;;;4.57;;
11100;SDS011;5604;50.722;7.078;2023-07-16T08:27:42;6.20;;;3.90;;
11100;SDS011;5604;50.722;7.078;2023-07-16T08:30:10;5.60;;;3.93;;
11100;SDS011;5604;50.722;7.078;2023-07-16T08:32:38;6.83;;;3.80;;
11100;SDS011;5604;50.722;7.078;2023-07-16T08:35:07;6.87;;;4.27;;
11100;SDS011;5604;50.722;7.078;2023-07-16T08:37:38;4.50;;;3.67;;
11100;SDS011;5604;50.722;7.078;2023-07-16T08:40:08;5.17;;;3.70;;
11100;SDS011;5604;50.722;7.078;2023-07-16T08:42:38;5.20;;;3.90;;
11100;SDS011;5604;50.722;7.078;2023-07-16T08:45:07;5.23;;;3.90;;
11100;SDS011;5604;50.722;7.078;2023-07-16T08:47:37;4.80;;;3.77;;
11100;SDS011;5604;50.722;7.078;2023-07-16T08:50:06;4.13;;;3.50;;
11100;SDS011;5604;50.722;7.078;2023-07-16T08:52:34;5.33;;;3.70;;
11100;SDS011;5604;50.722;7.078;2023-07-16T08:55:03;4.57;;;3.57;;
11100;SDS011;5604;50.722;7.078;2023-07-16T08:57:32;4.30;;;3.20;;
11100;SDS011;5604;50.722;7.078;2023-07-16T09:00:00;4.13;;;2.90;;
11100;SDS011;5604;50.722;7.078;2023-07-16T09:02:30;4.03;;;3.40;;
11100;SDS011;5604;50.722;7.078;2023-07-16T09:04:58;3.97;;;2.93;;
11100;SDS011;5604;50.722;7.078;2023-07-16T09:07:27;5.97;;;3.27;;
11100;SDS011;5604;50.722;7.078;2023-07-16T09:09:56;4.13;;;2.90;;
11100;SDS011;5604;50.722;7.078;2023-07-16T09:12:27;4.80;;;2.97;;
11100;SDS011;5604;50.722;7.078;2023-07-16T09:14:57;4.27;;;3.03;;
11100;SDS011;5604;50.722;7.078;2023-07-16T09:17:25;5.50;;;3.27;;
11100;SDS011;5604;50.722;7.078;2023-07-16T09:19:54;3.73;;;2.60;;
11100;SDS011;5604;50.722;7.078;2023-07-16T09:22:22;5.37;;;2.80;;
11100;SDS011;5604;50.722;7.078;2023-07-16T09:24:50;4.57;;;2.90;;
11100;SDS011;5604;50.722;7.078;2023-07-16T09:27:18;2.83;;;2.63;;
11100;SDS011;5604;50.722;7.078;2023-07-16T09:29:46;4.37;;;2.33;;
11100;SDS011;5604;50.722;7.078;2023-07-16T09:32:19;3.77;;;2.80;;
11100;SDS011;5604;50.722;7.078;2023-07-16T09:34:49;4.57;;;2.70;;
11100;SDS011;5604;50.722;7.078;2023-07-16T09:37:18;2.97;;;2.57;;
11100;SDS011;5604;50.722;7.078;2023-07-16T09:39:46;3.23;;;2.27;;
11100;SDS011;5604;50.722;7.078;2023-07-16T09:42:15;2.90;;;2.60;;
11100;SDS011;5604;50.722;7.078;2023-07-16T09:44:46;3.77;;;2.67;;
11100;SDS011;5604;50.722;7.078;2023-07-16T09:47:14;3.90;;;2.67;;
11100;SDS011;5604;50.722;7.078;2023-07-16T09:49:44;3.40;;;2.77;;
11100;SDS011;5604;50.722;7.078;2023-07-16T09:52:13;6.17;;;2.67;;
11100;SDS011;5604;50.722;7.078;2023-07-16T09:54:42;4.73;;;2.83;;
11100;SDS011;5604;50.722;7.078;2023-07-16T09:57:10;5.13;;;3.13;;
11100;SDS011;5604;50.722;7.078;2023-07-16T09:59:42;3.40;;;2.57;;
11100;SDS011;5604;50.722;7.078;2023-07-16T10:02:10;3.33;;;2.40;;
11100;SDS011;5604;50.722;7.078;2023-07-16T10:04:39;7.10;;;2.80;;
11100;SDS011;5604;50.722;7.078;2023-07-16T10:07:20;4.03;;;2.50;;
11100;SDS011;5604;50.722;7.078;2023-07-16T10:09:53;3.27;;;2.50;;
11100;SDS011;5604;50.722;7.078;2023-07-16T10:12:23;4.13;;;2.70;;
11100;SDS011;5604;50.722;7.078;2023-07-16T10:14:52;3.23;;;2.70;;
11100;SDS011;5604;50.722;7.078;2023-07-16T10:17:23;5.00;;;2.97;;
11100;SDS011;5604;50.722;7.078;2023-07-16T10:19:55;3.83;;;3.10;;
11100;SDS011;5604;50.722;7.078;2023-07-16T10:22:32;4.50;;;3.23;;
11100;SDS011;5604;50.722;7.078;2023-07-16T10:25:02;4.23;;;2.77;;
11100;SDS011;5604;50.722;7.078;2023-07-16T10:27:34;4.83;;;2.33;;
11100;SDS011;5604;50.722;7.078;2023-07-16T10:30:04;6.03;;;2.47;;
11100;SDS011;5604;50.722;7.078;2023-07-16T10:32:33;3.50;;;2.57;;
11100;SDS011;5604;50.722;7.078;2023-07-16T10:35:01;3.97;;;3.00;;
11100;SDS011;5604;50.722;7.078;2023-07-16T10:37:32;2.87;;;2.57;;
11100;SDS011;5604;50.722;7.078;2023-07-16T10:40:00;3.37;;;2.50;;
11100;SDS011;5604;50.722;7.078;2023-07-16T10:42:31;4.47;;;2.50;;
11100;SDS011;5604;50.722;7.078;2023-07-16T10:45:00;6.23;;;2.97;;
11100;SDS011;5604;50.722;7.078;2023-07-16T10:47:32;2.73;;;2.40;;
11100;SDS011;5604;50.722;7.078;2023-07-16T10:50:02;4.40;;;3.17;;
11100;SDS011;5604;50.722;7.078;2023-07-16T10:52:32;5.47;;;2.90;;
11100;SDS011;5604;50.722;7.078;2023-07-16T10:55:01;5.67;;;2.80;;
11100;SDS011;5604;50.722;7.078;2023-07-16T10:57:29;2.87;;;2.50;;
11100;SDS011;5604;50.722;7.078;2023-07-16T10:59:58;4.63;;;3.30;;
11100;SDS011;5604;50.722;7.078;2023-07-16T11:02:26;4.00;;;3.13;;
11100;SDS011;5604;50.722;7.078;2023-07-16T11:04:55;4.40;;;2.90;;
11100;SDS011;5604;50.722;7.078;2023-07-16T11:07:27;3.03;;;2.50;;
11100;SDS011;5604;50.722;7.078;2023-07-16T11:09:57;6.50;;;2.77;;
11100;SDS011;5604;50.722;7.078;2023-07-16T11:12:26;5.33;;;3.07;;
11100;SDS011;5604;50.722;7.078;2023-07-16T11:14:54;3.93;;;2.60;;
11100;SDS011;5604;50.722;7.078;2023-07-16T11:17:24;4.17;;;2.70;;
11100;SDS011;5604;50.722;7.078;2023-07-16T11:19:52;5.30;;;2.90;;
11100;SDS011;5604;50.722;7.078;2023-07-16T11:22:24;5.07;;;2.70;;
11100;SDS011;5604;50.722;7.078;2023-07-16T11:24:53;5.60;;;2.93;;
11100;SDS011;5604;50.722;7.078;2023-07-16T11:27:25;3.63;;;3.10;;
11100;SDS011;5604;50.722;7.078;2023-07-16T11:29:54;6.13;;;2.87;;
11100;SDS011;5604;50.722;7.078;2023-07-16T11:32:27;3.37;;;2.93;;
11100;SDS011;5604;50.722;7.078;2023-07-16T11:34:57;3.80;;;2.60;;
11100;SDS011;5604;50.722;7.078;2023-07-16T11:37:25;4.50;;;2.60;;
11100;SDS011;5604;50.722;7.078;2023-07-16T11:39:55;3.53;;;2.57;;
11100;SDS011;5604;50.722;7.078;2023-07-16T11:42:27;4.33;;;2.60;;
11100;SDS011;5604;50.722;7.078;2023-07-16T11:44:56;3.70;;;2.40;;
11100;SDS011;5604;50.722;7.078;2023-07-16T11:47:24;4.83;;;2.87;;
11100;SDS011;5604;50.722;7.078;2023-07-16T11:49:53;3.47;;;2.50;;
11100;SDS011;5604;50.722;7.078;2023-07-16T11:52:22;2.60;;;2.37;;
11100;SDS011;5604;50.722;7.078;2023-07-16T11:54:51;3.93;;;2.70;;
11100;SDS011;5604;50.722;7.078;2023-07-16T11:57:20;3.53;;;2.63;;
11100;SDS011;5604;50.722;7.078;2023-07-16T11:59:49;3.80;;;2.70;;
11100;SDS011;5604;50.722;7.078;2023-07-16T12:02:17;4.97;;;2.43;;
11100;SDS011;5604;50.722;7.078;2023-07-16T12:04:46;3.23;;;2.50;;
11100;SDS011;5604;50.722;7.078;2023-07-16T12:07:14;4.13;;;3.07;;
11100;SDS011;5604;50.722;7.078;2023-07-16T12:09:42;2.97;;;2.67;;
11100;SDS011;5604;50.722;7.078;2023-07-16T12:12:10;5.83;;;3.30;;
11100;SDS011;5604;50.722;7.078;2023-07-16T12:14:38;6.47;;;2.97;;
11100;SDS011;5604;50.722;7.078;2023-07-16T12:17:08;5.33;;;2.37;;
11100;SDS011;5604;50.722;7.078;2023-07-16T12:19:36;3.37;;;2.67;;
11100;SDS011;5604;50.722;7.078;2023-07-16T12:22:05;3.60;;;2.90;;
11100;SDS011;5604;50.722;7.078;2023-07-16T12:24:33;3.53;;;2.30;;
11100;SDS011;5604;50.722;7.078;2023-07-16T12:27:02;3.10;;;2.33;;
11100;SDS011;5604;50.722;7.078;2023-07-16T12:29:34;2.60;;;2.40;;
11100;SDS011;5604;50.722;7.078;2023-07-16T12:32:02;4.63;;;2.80;;
11100;SDS011;5604;50.722;7.078;2023-07-16T12:34:34;4.20;;;2.73;;
11100;SDS011;5604;50.722;7.078;2023-07-16T12:37:03;5.67;;;3.10;;
11100;SDS011;5604;50.722;7.078;2023-07-16T12:39:33;6.27;;;3.33;;
11100;SDS011;5604;50.722;7.078;2023-07-16T12:42:01;3.83;;;2.83;;
11100;SDS011;5604;50.722;7.078;2023-07-16T12:44:30;3.30;;;2.77;;
11100;SDS011;5604;50.722;7.078;2023-07-16T12:46:58;2.90;;;2.50;;
11100;SDS011;5604;50.722;7.078;2023-07-16T12:49:26;3.83;;;2.70;;
11100;SDS011;5604;50.722;7.078;2023-07-16T12:51:55;3.63;;;2.67;;
11100;SDS011;5604;50.722;7.078;2023-07-16T12:54:24;4.80;;;2.80;;
11100;SDS011;5604;50.722;7.078;2023-07-16T12:56:52;6.73;;;3.00;;
11100;SDS011;5604;50.722;7.078;2023-07-16T12:59:20;5.50;;;3.10;;
11100;SDS011;5604;50.722;7.078;2023-07-16T13:01:48;3.03;;;2.60;;
11100;SDS011;5604;50.722;7.078;2023-07-16T13:04:16;5.47;;;2.40;;
11100;SDS011;5604;50.722;7.078;2023-07-16T13:06:44;3.30;;;2.53;;
11100;SDS011;5604;50.722;7.078;2023-07-16T13:09:15;4.53;;;2.60;;
11100;SDS011;5604;50.722;7.078;2023-07-16T13:11:43;4.43;;;2.47;;
11100;SDS011;5604;50.722;7.078;2023-07-16T13:14:11;3.30;;;2.27;;
11100;SDS011;5604;50.722;7.078;2023-07-16T13:16:39;5.20;;;2.67;;
11100;SDS011;5604;50.722;7.078;2023-07-16T13:19:07;2.63;;;2.40;;
11100;SDS011;5604;50.722;7.078;2023-07-16T13:21:36;5.13;;;2.87;;
11100;SDS011;5604;50.722;7.078;2023-07-16T13:24:04;3.17;;;2.60;;
11100;SDS011;5604;50.722;7.078;2023-07-16T13:26:34;3.90;;;2.30;;
11100;SDS011;5604;50.722;7.078;2023-07-16T13:29:02;2.97;;;2.67;;
11100;SDS011;5604;50.722;7.078;2023-07-16T13:31:30;4.37;;;2.57;;
11100;SDS011;5604;50.722;7.078;2023-07-16T13:33:58;4.23;;;2.80;;
11100;SDS011;5604;50.722;7.078;2023-07-16T13:36:27;5.37;;;2.87;;
11100;SDS011;5604;50.722;7.078;2023-07-16T13:38:55;3.47;;;2.20;;
11100;SDS011;5604;50.722;7.078;2023-07-16T13:41:23;5.43;;;2.47;;
11100;SDS011;5604;50.722;7.078;2023-07-16T13:43:53;3.90;;;2.40;;
11100;SDS011;5604;50.722;7.078;2023-07-16T13:46:21;4.00;;;2.70;;
11100;SDS011;5604;50.722;7.078;2023-07-16T13:48:49;4.43;;;2.63;;
11100;SDS011;5604;50.722;7.078;2023-07-16T13:51:25;2.97;;;2.70;;
11100;SDS011;5604;50.722;7.078;2023-07-16T13:53:53;4.80;;;2.70;;
11100;SDS011;5604;50.722;7.078;2023-07-16T13:56:21;4.40;;;2.90;;
11100;SDS011;5604;50.722;7.078;2023-07-16T13:58:49;3.27;;;3.00;;
11100;SDS011;5604;50.722;7.078;2023-07-16T14:01:19;4.53;;;2.67;;
11100;SDS011;5604;50.722;7.078;2023-07-16T14:03:47;4.80;;;2.80;;
11100;SDS011;5604;50.722;7.078;2023-07-16T14:06:16;4.50;;;2.77;;
11100;SDS011;5604;50.722;7.078;2023-07-16T14:08:44;3.77;;;2.50;;
11100;SDS011;5604;50.722;7.078;2023-07-16T14:11:12;3.43;;;2.67;;
11100;SDS011;5604;50.722;7.078;2023-07-16T14:13:44;5.10;;;2.97;;
11100;SDS011;5604;50.722;7.078;2023-07-16T14:16:15;3.60;;;3.07;;
11100;SDS011;5604;50.722;7.078;2023-07-16T14:18:45;4.30;;;3.00;;
11100;SDS011;5604;50.722;7.078;2023-07-16T14:21:16;4.17;;;2.40;;
11100;SDS011;5604;50.722;7.078;2023-07-16T14:23:44;3.87;;;2.53;;
11100;SDS011;5604;50.722;7.078;2023-07-16T14:26:12;3.50;;;2.80;;
11100;SDS011;5604;50.722;7.078;2023-07-16T14:28:40;5.83;;;2.70;;
11100;SDS011;5604;50.722;7.078;2023-07-16T14:31:08;4.93;;;2.80;;
11100;SDS011;5604;50.722;7.078;2023-07-16T14:33:37;4.07;;;3.00;;
11100;SDS011;5604;50.722;7.078;2023-07-16T14:36:07;4.17;;;2.80;;
11100;SDS011;5604;50.722;7.078;2023-07-16T14:38:35;3.87;;;2.60;;
11100;SDS011;5604;50.722;7.078;2023-07-16T14:41:03;3.03;;;2.17;;
11100;SDS011;5604;50.722;7.078;2023-07-16T14:43:33;4.43;;;2.60;;
11100;SDS011;5604;50.722;7.078;2023-07-16T14:46:01;4.30;;;3.10;;
11100;SDS011;5604;50.722;7.078;2023-07-16T14:48:30;3.37;;;2.83;;
11100;SDS011;5604;50.722;7.078;2023-07-16T14:50:58;5.60;;;2.80;;
11100;SDS011;5604;50.722;7.078;2023-07-16T14:53:27;5.80;;;2.90;;
11100;SDS011;5604;50.722;7.078;2023-07-16T14:55:55;2.57;;;2.33;;
11100;SDS011;5604;50.722;7.078;2023-07-16T14:58:24;4.50;;;2.67;;
11100;SDS011;5604;50.722;7.078;2023-07-16T15:00:52;3.70;;;2.47;;
11100;SDS011;5604;50.722;7.078;2023-07-16T15:03:21;5.03;;;2.70;;
11100;SDS011;5604;50.722;7.078;2023-07-16T15:05:55;5.20;;;2.50;;
11100;SDS011;5604;50.722;7.078;2023-07-16T15:08:23;3.60;;;2.57;;
11100;SDS011;5604;50.722;7.078;2023-07-16T15:10:54;3.63;;;2.63;;